createdAt,value
2019-02-26T00:02:25.933Z,7.00
2019-02-26T00:04:56.387Z,7.00
2019-02-26T00:07:29.850Z,6.80
2019-02-26T00:09:59.622Z,6.80
2019-02-26T00:12:31.011Z,6.90
2019-02-26T00:15:02.527Z,6.60
2019-02-26T00:17:38.600Z,6.10
2019-02-26T00:20:05.769Z,5.90
2019-02-26T00:22:36.729Z,5.80
2019-02-26T00:25:08.523Z,5.70
2019-02-26T00:27:37.453Z,5.60
2019-02-26T00:30:10.962Z,6.20
2019-02-26T00:32:40.471Z,6.90
2019-02-26T00:35:12.197Z,6.90
2019-02-26T00:37:41.380Z,7.30
2019-02-26T00:40:12.388Z,7.30
2019-02-26T00:42:41.531Z,7.20
2019-02-26T00:45:13.575Z,6.60
2019-02-26T00:47:43.566Z,6.80
2019-02-26T00:50:16.430Z,7.00
2019-02-26T00:52:45.569Z,7.20
2019-02-26T00:55:15.450Z,6.80
2019-02-26T00:57:46.354Z,6.50
2019-02-26T01:00:15.919Z,6.30
2019-02-26T01:02:46.927Z,6.10
2019-02-26T01:05:16.759Z,5.90
2019-02-26T01:07:50.227Z,5.80
2019-02-26T01:10:21.102Z,5.80
2019-02-26T01:12:50.896Z,6.80
2019-02-26T01:15:20.443Z,7.00
2019-02-26T01:17:49.566Z,7.10
2019-02-26T01:20:19.595Z,7.10
2019-02-26T01:22:49.689Z,7.30
2019-02-26T01:25:21.054Z,7.20
2019-02-26T01:27:51.127Z,7.30
2019-02-26T01:30:23.863Z,7.30
2019-02-26T01:32:51.709Z,7.20
2019-02-26T01:35:21.264Z,6.90
2019-02-26T01:37:51.467Z,6.70
2019-02-26T01:40:23.447Z,6.40
2019-02-26T01:42:54.984Z,6.30
2019-02-26T01:45:29.843Z,6.20
2019-02-26T01:47:59.831Z,5.90
2019-02-26T01:50:30.752Z,5.80
2019-02-26T01:53:01.353Z,6.80
2019-02-26T01:55:30.461Z,7.10
2019-02-26T01:57:59.602Z,6.80
2019-02-26T02:00:28.871Z,6.60
2019-02-26T02:03:00.074Z,6.30
2019-02-26T02:05:31.295Z,6.10
2019-02-26T02:08:00.175Z,5.90
2019-02-26T02:10:29.318Z,6.00
2019-02-26T02:13:00.296Z,5.90
2019-02-26T02:15:29.617Z,5.80
2019-02-26T02:17:59.537Z,5.60
2019-02-26T02:20:29.586Z,5.70
2019-02-26T02:23:00.478Z,5.50
2019-02-26T02:25:33.242Z,5.50
2019-02-26T02:28:02.807Z,5.60
2019-02-26T02:30:35.431Z,5.50
2019-02-26T02:33:07.938Z,5.50
2019-02-26T02:35:37.063Z,5.60
2019-02-26T02:38:06.302Z,5.70
2019-02-26T02:40:38.050Z,5.50
2019-02-26T02:43:09.815Z,5.40
2019-02-26T02:45:37.251Z,5.40
2019-02-26T02:48:09.209Z,5.60
2019-02-26T02:50:39.114Z,5.70
2019-02-26T02:53:08.272Z,6.00
2019-02-26T02:55:37.919Z,5.70
2019-02-26T02:58:13.054Z,5.50
2019-02-26T03:00:43.701Z,5.50
2019-02-26T03:03:16.155Z,5.70
2019-02-26T03:05:45.889Z,5.30
2019-02-26T03:08:16.340Z,5.20
2019-02-26T03:10:46.011Z,5.30
2019-02-26T03:13:16.961Z,5.20
2019-02-26T03:15:47.502Z,4.80
2019-02-26T03:18:18.205Z,4.70
2019-02-26T03:20:47.336Z,4.80
2019-02-26T03:23:19.781Z,4.80
2019-02-26T03:25:49.879Z,4.70
2019-02-26T03:28:20.014Z,4.70
2019-02-26T03:30:49.722Z,4.80
2019-02-26T03:33:18.842Z,4.90
2019-02-26T03:35:47.928Z,4.90
2019-02-26T03:38:18.098Z,4.60
2019-02-26T03:40:49.311Z,4.40
2019-02-26T03:43:18.725Z,4.20
2019-02-26T03:45:48.207Z,4.10
2019-02-26T03:48:20.330Z,3.90
2019-02-26T03:50:49.420Z,4.10
2019-02-26T03:53:18.563Z,4.20
2019-02-26T03:55:47.922Z,4.50
2019-02-26T03:58:17.365Z,4.60
2019-02-26T04:00:46.989Z,4.70
2019-02-26T04:03:17.551Z,4.60
2019-02-26T04:05:48.141Z,4.30
2019-02-26T04:08:19.948Z,4.20
2019-02-26T04:10:49.952Z,4.20
2019-02-26T04:13:19.527Z,4.30
2019-02-26T04:15:53.294Z,4.30
2019-02-26T04:18:21.637Z,4.40
2019-02-26T04:20:50.890Z,4.40
2019-02-26T04:23:21.958Z,4.20
2019-02-26T04:26:32.258Z,4.50
2019-02-26T04:29:41.728Z,4.50
2019-02-26T04:32:30.778Z,4.00
2019-02-26T04:35:32.750Z,3.90
2019-02-26T04:38:31.103Z,3.70
2019-02-26T04:41:25.393Z,3.90
2019-02-26T04:44:31.249Z,3.80
2019-02-26T04:47:24.189Z,4.50
2019-02-26T04:49:57.188Z,4.60
2019-02-26T04:52:25.696Z,4.60
2019-02-26T04:54:54.795Z,4.90
2019-02-26T04:57:26.257Z,4.60
2019-02-26T04:59:56.295Z,4.50
2019-02-26T05:02:28.592Z,4.40
2019-02-26T05:04:57.738Z,4.60
2019-02-26T05:07:27.383Z,4.70
2019-02-26T05:09:58.940Z,4.80
2019-02-26T05:12:30.382Z,4.90
2019-02-26T05:14:58.721Z,5.20
2019-02-26T05:17:30.756Z,5.10
2019-02-26T05:20:03.597Z,4.70
2019-02-26T05:22:33.367Z,4.40
2019-02-26T05:25:06.897Z,4.50
2019-02-26T05:27:36.465Z,4.70
2019-02-26T05:30:09.433Z,4.90
2019-02-26T05:32:37.879Z,5.00
2019-02-26T05:35:07.332Z,5.10
2019-02-26T05:37:40.188Z,4.70
2019-02-26T05:40:10.744Z,4.40
2019-02-26T05:42:43.201Z,4.20
2019-02-26T05:45:12.407Z,3.90
2019-02-26T05:47:43.086Z,3.70
2019-02-26T05:50:16.167Z,3.90
2019-02-26T05:52:43.914Z,3.90
2019-02-26T05:55:14.607Z,3.90
2019-02-26T05:57:44.134Z,3.80
2019-02-26T06:00:14.548Z,3.70
2019-02-26T06:02:47.297Z,3.90
2019-02-26T06:05:18.408Z,3.90
2019-02-26T06:07:47.764Z,3.90
2019-02-26T06:10:18.914Z,4.00
2019-02-26T06:12:47.738Z,3.90
2019-02-26T06:15:20.219Z,4.10
2019-02-26T06:17:51.460Z,4.30
2019-02-26T06:20:23.430Z,4.50
2019-02-26T06:22:52.254Z,4.30
2019-02-26T06:25:24.431Z,4.00
2019-02-26T06:27:52.441Z,4.20
2019-02-26T06:30:24.014Z,4.10
2019-02-26T06:32:59.576Z,3.80
2019-02-26T06:35:26.846Z,3.80
2019-02-26T06:37:55.967Z,4.00
2019-02-26T06:40:26.769Z,3.90
2019-02-26T06:42:57.105Z,4.10
2019-02-26T06:45:28.349Z,4.10
2019-02-26T06:47:59.415Z,3.70
2019-02-26T06:50:28.533Z,3.90
2019-02-26T06:52:57.630Z,4.10
2019-02-26T06:55:28.039Z,4.20
2019-02-26T06:58:20.505Z,4.30
2019-02-26T07:00:54.681Z,4.30
2019-02-26T07:03:24.154Z,4.30
2019-02-26T07:05:51.262Z,4.30
2019-02-26T07:08:21.938Z,4.50
2019-02-26T07:10:51.269Z,4.30
2019-02-26T07:13:20.400Z,4.10
2019-02-26T07:15:49.553Z,4.20
2019-02-26T07:18:19.667Z,4.20
2019-02-26T07:20:50.689Z,4.10
2019-02-26T07:23:22.374Z,4.40
2019-02-26T07:25:53.584Z,4.90
2019-02-26T07:28:26.873Z,5.10
2019-02-26T07:30:56.704Z,5.20
2019-02-26T07:33:27.411Z,5.30
2019-02-26T07:35:59.423Z,5.20
2019-02-26T07:38:29.795Z,5.40
2019-02-26T07:41:01.275Z,5.40
2019-02-26T07:43:29.931Z,5.50
2019-02-26T07:45:59.070Z,5.50
2019-02-26T07:48:29.515Z,5.70
2019-02-26T07:50:59.158Z,5.80
2019-02-26T07:53:29.907Z,5.70
2019-02-26T07:56:01.247Z,5.70
2019-02-26T07:58:33.929Z,5.90
2019-02-26T08:01:03.869Z,6.00
2019-02-26T08:03:33.089Z,6.10
2019-02-26T08:06:06.756Z,6.20
2019-02-26T08:08:36.950Z,6.60
2019-02-26T08:11:06.004Z,7.20
2019-02-26T08:13:36.602Z,7.50
2019-02-26T08:16:05.813Z,7.50
2019-02-26T08:18:36.819Z,7.40
2019-02-26T08:21:05.913Z,7.80
2019-02-26T08:23:36.670Z,7.90
2019-02-26T08:26:06.787Z,8.00
2019-02-26T08:28:36.983Z,8.30
2019-02-26T08:31:07.001Z,8.40
2019-02-26T08:33:36.145Z,8.40
2019-02-26T08:36:05.238Z,8.40
2019-02-26T08:38:36.532Z,8.50
2019-02-26T08:41:06.011Z,8.70
2019-02-26T08:43:35.262Z,8.80
2019-02-26T08:46:06.748Z,9.40
2019-02-26T08:48:35.591Z,9.50
2019-02-26T08:51:06.159Z,9.50
2019-02-26T08:53:35.675Z,9.60
2019-02-26T08:56:04.798Z,9.70
2019-02-26T08:58:33.964Z,9.80
2019-02-26T09:01:03.148Z,9.90
2019-02-26T09:03:40.311Z,10.10
2019-02-26T09:06:12.768Z,10.30
2019-02-26T09:08:38.609Z,10.50
2019-02-26T09:11:13.359Z,10.70
2019-02-26T09:13:43.886Z,11.00
2019-02-26T09:16:14.999Z,11.20
2019-02-26T09:18:46.033Z,11.30
2019-02-26T09:21:15.299Z,11.30
2019-02-26T09:23:49.527Z,11.60
2019-02-26T09:26:17.799Z,11.90
2019-02-26T09:28:48.172Z,12.10
2019-02-26T09:31:17.797Z,12.20
2019-02-26T09:33:46.921Z,12.30
2019-02-26T09:36:20.442Z,12.30
2019-02-26T09:38:48.655Z,12.40
2019-02-26T09:41:19.411Z,12.20
2019-02-26T09:43:48.655Z,12.30
2019-02-26T09:46:19.334Z,12.50
2019-02-26T09:48:48.554Z,12.50
2019-02-26T09:51:17.814Z,13.00
2019-02-26T09:53:47.648Z,13.40
2019-02-26T09:56:17.794Z,13.60
2019-02-26T09:58:48.363Z,13.60
2019-02-26T10:01:19.450Z,13.90
2019-02-26T10:03:48.611Z,14.20
2019-02-26T10:06:19.212Z,14.20
2019-02-26T10:08:50.807Z,14.40
2019-02-26T10:11:21.252Z,14.40
2019-02-26T10:13:51.210Z,14.50
2019-02-26T10:16:21.665Z,14.70
2019-02-26T10:18:52.537Z,14.70
2019-02-26T10:21:22.217Z,14.90
2019-02-26T10:23:52.181Z,15.20
2019-02-26T10:26:26.399Z,15.30
2019-02-26T10:28:59.036Z,15.50
2019-02-26T10:31:27.679Z,15.70
2019-02-26T10:33:57.003Z,16.00
2019-02-26T10:36:30.270Z,16.20
2019-02-26T10:38:57.759Z,16.30
2019-02-26T10:41:27.886Z,16.40
2019-02-26T10:43:57.037Z,16.70
2019-02-26T10:46:26.165Z,16.60
2019-02-26T10:48:55.337Z,16.20
2019-02-26T10:51:27.045Z,16.60
2019-02-26T10:53:59.610Z,16.50
2019-02-26T10:56:28.695Z,16.30
2019-02-26T10:59:01.987Z,15.60
2019-02-26T11:01:30.480Z,15.10
2019-02-26T11:03:58.901Z,15.30
2019-02-26T11:06:30.409Z,15.80
2019-02-26T11:09:01.776Z,16.20
2019-02-26T11:11:30.605Z,16.60
2019-02-26T11:14:00.721Z,16.50
2019-02-26T11:16:31.029Z,16.30
2019-02-26T11:19:02.420Z,16.20
2019-02-26T11:21:31.728Z,16.20
2019-02-26T11:24:03.516Z,15.90
2019-02-26T11:26:35.212Z,15.60
2019-02-26T11:29:03.404Z,14.60
2019-02-26T11:31:36.425Z,14.40
2019-02-26T11:34:07.301Z,14.60
2019-02-26T11:36:38.279Z,14.70
2019-02-26T11:39:09.992Z,14.70
2019-02-26T11:41:44.552Z,14.60
2019-02-26T11:44:17.607Z,14.50
2019-02-26T11:46:48.174Z,14.50
2019-02-26T11:49:16.952Z,14.50
2019-02-26T11:51:47.389Z,14.50
2019-02-26T11:54:23.805Z,14.40
2019-02-26T11:56:53.056Z,14.40
2019-02-26T11:59:22.187Z,14.50
2019-02-26T12:01:51.397Z,14.60
2019-02-26T12:04:23.366Z,14.60
2019-02-26T12:06:52.571Z,14.60
2019-02-26T12:09:23.093Z,14.60
2019-02-26T12:11:53.778Z,14.60
2019-02-26T12:14:24.913Z,14.60
2019-02-26T12:16:54.380Z,14.80
2019-02-26T12:19:25.502Z,14.80
2019-02-26T12:21:57.298Z,14.80
2019-02-26T12:24:26.670Z,14.80
2019-02-26T12:26:57.819Z,14.90
2019-02-26T12:29:29.862Z,14.90
2019-02-26T12:32:04.783Z,15.10
2019-02-26T12:34:35.202Z,15.20
2019-02-26T12:37:06.621Z,15.20
2019-02-26T12:39:36.948Z,15.30
2019-02-26T12:42:10.642Z,15.50
2019-02-26T12:44:44.810Z,15.60
2019-02-26T12:47:15.439Z,15.70
2019-02-26T12:49:45.854Z,15.70
2019-02-26T12:52:17.797Z,15.80
2019-02-26T12:54:45.950Z,15.70
2019-02-26T12:57:16.964Z,15.70
2019-02-26T12:59:45.978Z,16.00
2019-02-26T13:02:17.144Z,16.00
2019-02-26T13:04:51.096Z,16.00
2019-02-26T13:07:19.183Z,15.80
2019-02-26T13:09:54.170Z,15.70
2019-02-26T13:12:23.279Z,15.90
2019-02-26T13:14:51.156Z,15.50
2019-02-26T13:17:26.137Z,15.70
2019-02-26T13:19:58.957Z,15.80
2019-02-26T13:22:26.130Z,15.70
2019-02-26T13:24:55.265Z,15.70
2019-02-26T13:27:24.477Z,15.80
2019-02-26T13:29:56.950Z,15.70
2019-02-26T13:32:32.296Z,15.60
2019-02-26T13:35:00.797Z,15.70
2019-02-26T13:37:32.456Z,15.80
2019-02-26T13:40:00.215Z,15.70
2019-02-26T13:42:29.640Z,15.70
2019-02-26T13:44:58.767Z,15.70
2019-02-26T13:47:27.898Z,15.80
2019-02-26T13:49:57.234Z,15.80
2019-02-26T13:52:26.500Z,15.70
2019-02-26T13:54:55.922Z,15.80
2019-02-26T13:57:26.427Z,15.70
2019-02-26T13:59:56.341Z,15.60
2019-02-26T14:02:26.078Z,15.80
2019-02-26T14:04:55.200Z,15.90
2019-02-26T14:07:25.602Z,16.10
2019-02-26T14:09:55.115Z,16.30
2019-02-26T14:12:26.147Z,16.70
2019-02-26T14:14:55.691Z,17.10
2019-02-26T14:17:24.901Z,17.40
2019-02-26T14:19:55.403Z,17.70
2019-02-26T14:22:27.819Z,18.10
2019-02-26T14:24:56.603Z,18.10
2019-02-26T14:27:25.755Z,18.50
2019-02-26T14:29:54.978Z,18.60
2019-02-26T14:32:24.121Z,18.80
2019-02-26T14:34:53.360Z,18.80
2019-02-26T14:37:22.605Z,19.20
2019-02-26T14:39:51.734Z,19.10
2019-02-26T14:42:21.682Z,19.00
2019-02-26T14:44:56.114Z,19.40
2019-02-26T14:47:30.022Z,19.30
2019-02-26T14:49:59.638Z,19.40
2019-02-26T14:52:51.114Z,19.60
2019-02-26T14:55:30.127Z,19.70
2019-02-26T14:58:03.427Z,19.90
2019-02-26T15:00:36.214Z,19.80
2019-02-26T15:03:09.538Z,20.10
2019-02-26T15:05:47.508Z,20.10
2019-02-26T15:08:18.014Z,20.00
2019-02-26T15:10:48.156Z,20.10
2019-02-26T15:13:19.052Z,20.20
2019-02-26T15:15:49.587Z,20.30
2019-02-26T15:18:21.021Z,20.80
2019-02-26T15:20:52.984Z,20.70
2019-02-26T15:23:23.580Z,20.60
2019-02-26T15:25:52.866Z,20.50
2019-02-26T15:28:22.057Z,20.30
2019-02-26T15:30:51.294Z,20.00
2019-02-26T15:33:20.446Z,20.00
2019-02-26T15:35:49.661Z,20.00
2019-02-26T15:38:18.821Z,20.10
2019-02-26T15:40:47.979Z,20.10
2019-02-26T15:43:17.489Z,20.20
2019-02-26T15:45:51.911Z,20.30
2019-02-26T15:48:17.659Z,20.20
2019-02-26T15:50:46.959Z,20.10
2019-02-26T15:53:16.949Z,19.90
2019-02-26T15:55:47.257Z,19.90
2019-02-26T15:58:18.672Z,19.90
2019-02-26T16:00:49.675Z,19.70
2019-02-26T16:03:19.237Z,19.70
2019-02-26T16:05:48.585Z,19.70
2019-02-26T16:08:17.777Z,19.50
2019-02-26T16:10:46.905Z,19.50
2019-02-26T16:13:16.077Z,19.20
2019-02-26T16:15:45.261Z,19.10
2019-02-26T16:18:14.851Z,19.10
2019-02-26T16:20:44.070Z,19.20
2019-02-26T16:23:13.262Z,19.00
2019-02-26T16:25:42.467Z,19.10
2019-02-26T16:28:11.758Z,19.20
2019-02-26T16:30:41.004Z,19.30
2019-02-26T16:33:11.280Z,19.40
2019-02-26T16:35:41.052Z,19.30
2019-02-26T16:38:11.723Z,19.20
2019-02-26T16:40:40.997Z,19.10
2019-02-26T16:43:10.226Z,18.80
2019-02-26T16:45:39.302Z,18.60
2019-02-26T16:48:08.580Z,18.30
2019-02-26T16:50:37.918Z,18.10
2019-02-26T16:53:07.218Z,17.80
2019-02-26T16:55:36.424Z,17.40
2019-02-26T16:58:06.920Z,17.20
2019-02-26T17:00:36.082Z,16.90
2019-02-26T17:03:06.092Z,16.60
2019-02-26T17:05:35.474Z,16.40
2019-02-26T17:08:04.806Z,16.30
2019-02-26T17:10:34.051Z,16.10
2019-02-26T17:13:03.188Z,15.90
2019-02-26T17:15:32.554Z,15.60
2019-02-26T17:18:01.879Z,15.60
2019-02-26T17:20:31.585Z,15.50
2019-02-26T17:23:00.743Z,15.20
2019-02-26T17:25:29.945Z,15.10
2019-02-26T17:27:59.087Z,14.90
2019-02-26T17:30:28.209Z,14.80
2019-02-26T17:32:57.459Z,14.60
2019-02-26T17:35:29.067Z,14.40
2019-02-26T17:37:57.463Z,14.20
2019-02-26T17:40:26.813Z,14.00
2019-02-26T17:42:55.980Z,13.80
2019-02-26T17:45:27.621Z,13.50
2019-02-26T17:47:57.512Z,13.30
2019-02-26T17:50:31.789Z,13.10
2019-02-26T17:53:03.960Z,12.50
2019-02-26T17:55:38.440Z,12.20
2019-02-26T17:58:10.561Z,12.00
2019-02-26T18:00:41.068Z,12.20
2019-02-26T18:03:10.166Z,12.30
2019-02-26T18:05:50.918Z,12.10
2019-02-26T18:08:18.817Z,12.10
2019-02-26T18:10:46.316Z,12.00
2019-02-26T18:13:21.285Z,11.90
2019-02-26T18:15:56.859Z,11.80
2019-02-26T18:18:24.910Z,11.70
2019-02-26T18:20:54.098Z,11.50
2019-02-26T18:23:24.810Z,11.30
2019-02-26T18:25:54.252Z,11.40
2019-02-26T18:28:23.497Z,11.30
2019-02-26T18:30:52.629Z,11.10
2019-02-26T18:33:22.656Z,11.20
2019-02-26T18:35:51.721Z,11.20
2019-02-26T18:38:20.857Z,11.60
2019-02-26T18:40:50.039Z,11.60
2019-02-26T18:43:24.357Z,11.60
2019-02-26T18:45:55.367Z,11.60
2019-02-26T18:48:25.763Z,11.30
2019-02-26T18:50:55.186Z,11.00
2019-02-26T18:53:25.495Z,10.80
2019-02-26T18:55:57.488Z,10.70
2019-02-26T18:58:27.483Z,10.50
2019-02-26T19:00:58.767Z,10.40
2019-02-26T19:03:29.603Z,10.30
2019-02-26T19:05:59.153Z,10.10
2019-02-26T19:08:28.588Z,10.80
2019-02-26T19:10:57.820Z,10.70
2019-02-26T19:13:27.780Z,10.70
2019-02-26T19:16:01.089Z,10.70
2019-02-26T19:18:30.546Z,10.70
2019-02-26T19:20:59.709Z,10.70
2019-02-26T19:23:31.823Z,10.50
2019-02-26T19:26:01.454Z,10.40
2019-02-26T19:28:30.893Z,10.10
2019-02-26T19:31:00.319Z,9.90
2019-02-26T19:33:29.491Z,9.80
2019-02-26T19:36:00.871Z,9.60
2019-02-26T19:38:30.269Z,9.50
2019-02-26T19:41:02.201Z,9.50
2019-02-26T19:43:32.665Z,9.70
2019-02-26T19:46:06.190Z,9.70
2019-02-26T19:48:39.357Z,9.70
2019-02-26T19:51:08.507Z,9.60
2019-02-26T19:53:40.238Z,9.70
2019-02-26T19:56:11.850Z,9.60
2019-02-26T19:58:51.501Z,9.30
2019-02-26T20:01:25.820Z,9.10
2019-02-26T20:04:14.724Z,9.00
2019-02-26T20:06:45.248Z,8.90
2019-02-26T20:09:23.368Z,8.70
2019-02-26T20:11:53.586Z,8.60
2019-02-26T20:14:29.506Z,8.60
2019-02-26T20:17:13.777Z,8.90
2019-02-26T20:19:32.439Z,9.40
2019-02-26T20:22:01.642Z,10.20
2019-02-26T20:24:30.788Z,10.40
2019-02-26T20:27:00.078Z,10.30
2019-02-26T20:29:29.503Z,10.50
2019-02-26T20:31:58.666Z,10.40
2019-02-26T20:34:36.846Z,10.60
2019-02-26T20:37:17.956Z,10.20
2019-02-26T20:39:51.811Z,9.90
2019-02-26T20:42:21.157Z,9.60
2019-02-26T20:44:58.779Z,9.50
2019-02-26T20:47:21.922Z,9.40
2019-02-26T20:49:55.311Z,9.40
2019-02-26T20:52:24.945Z,9.60
2019-02-26T20:54:54.256Z,10.30
2019-02-26T20:57:25.862Z,10.50
2019-02-26T20:59:55.481Z,10.50
2019-02-26T21:02:26.628Z,10.50
2019-02-26T21:04:56.042Z,10.60
2019-02-26T21:07:25.255Z,10.50
2019-02-26T21:10:03.341Z,10.10
2019-02-26T21:12:28.583Z,9.80
2019-02-26T21:14:56.612Z,9.70
2019-02-26T21:17:26.343Z,9.70
2019-02-26T21:19:55.986Z,9.60
2019-02-26T21:22:25.342Z,9.60
2019-02-26T21:24:55.562Z,9.60
2019-02-26T21:27:25.914Z,9.80
2019-02-26T21:29:57.035Z,10.30
2019-02-26T21:32:27.091Z,10.40
2019-02-26T21:34:56.357Z,10.40
2019-02-26T21:37:25.765Z,10.50
2019-02-26T21:39:55.175Z,10.50
2019-02-26T21:42:24.457Z,10.50
2019-02-26T21:44:53.978Z,10.20
2019-02-26T21:47:23.281Z,10.00
2019-02-26T21:49:52.499Z,9.80
2019-02-26T21:52:21.930Z,9.80
2019-02-26T21:54:51.349Z,9.80
2019-02-26T21:57:21.654Z,9.70
2019-02-26T21:59:51.571Z,9.70
2019-02-26T22:02:20.933Z,9.70
2019-02-26T22:04:50.337Z,10.20
2019-02-26T22:07:19.860Z,10.40
2019-02-26T22:09:49.545Z,10.40
2019-02-26T22:12:18.731Z,10.30
2019-02-26T22:14:48.141Z,10.40
2019-02-26T22:17:17.239Z,10.30
2019-02-26T22:19:46.497Z,10.00
2019-02-26T22:22:15.588Z,9.70
2019-02-26T22:24:46.123Z,9.60
2019-02-26T22:27:15.616Z,9.40
2019-02-26T22:29:47.915Z,9.40
2019-02-26T22:32:15.633Z,9.40
2019-02-26T22:34:44.850Z,9.30
2019-02-26T22:37:14.028Z,9.40
2019-02-26T22:39:43.226Z,9.80
2019-02-26T22:42:12.512Z,9.90
2019-02-26T22:44:43.312Z,9.90
2019-02-26T22:47:13.622Z,9.90
2019-02-26T22:49:42.904Z,9.80
2019-02-26T22:52:12.306Z,9.80
2019-02-26T22:54:43.524Z,9.50
2019-02-26T22:57:14.035Z,9.30
2019-02-26T22:59:44.734Z,9.10
2019-02-26T23:02:15.554Z,9.00
2019-02-26T23:04:45.099Z,8.90
2019-02-26T23:07:14.769Z,8.80
2019-02-26T23:09:44.065Z,8.70
2019-02-26T23:12:13.549Z,8.80
2019-02-26T23:14:42.701Z,9.30
2019-02-26T23:17:12.403Z,9.40
2019-02-26T23:19:41.509Z,9.40
2019-02-26T23:22:10.695Z,9.40
2019-02-26T23:24:39.895Z,9.20
2019-02-26T23:27:09.369Z,9.10
2019-02-26T23:29:42.203Z,8.80
2019-02-26T23:32:11.396Z,8.60
2019-02-26T23:34:43.898Z,8.40
2019-02-26T23:37:13.260Z,8.30
2019-02-26T23:39:42.422Z,8.10
2019-02-26T23:42:11.856Z,8.70
2019-02-26T23:44:41.224Z,9.00
2019-02-26T23:47:10.436Z,9.10
2019-02-26T23:49:40.680Z,8.90
2019-02-26T23:52:13.801Z,8.90
2019-02-26T23:54:43.820Z,8.60
2019-02-26T23:57:13.282Z,8.40
2019-02-26T23:59:44.396Z,8.40
